Time;durP1;ratioP1;P1;durP2;ratioP2;P2;SDS_P1;SDS_P2;PMS_P1;PMS_P2;Temp;Humidity;BMP_temperature;BMP_pressure;BME280_temperature;BME280_humidity;BME280_pressure;Samples;Min_cycle;Max_cycle;Signal;HPM_P1;HPM_P2
2022/12/28 00:02:10;;;;;;;37.08;17.77;;;;;;;7.33;86.55;97852.09;5022376;28;20081;-65
2022/12/28 00:04:37;;;;;;;25.40;13.32;;;;;;;7.05;88.59;97859.16;5022258;28;20240;-67
2022/12/28 00:07:03;;;;;;;20.52;13.15;;;;;;;6.83;89.28;97842.06;5022279;28;20088;-67
2022/12/28 00:09:30;;;;;;;23.95;11.88;;;;;;;7.10;88.69;97847.16;5020970;28;20375;-56
2022/12/28 00:11:56;;;;;;;20.42;10.55;;;;;;;7.15;88.75;97856.06;5021495;28;20536;-66
2022/12/28 00:14:24;;;;;;;15.10;8.75;;;;;;;6.86;86.93;97792.63;5021609;28;20652;-67
2022/12/28 00:16:50;;;;;;;36.50;17.13;;;;;;;7.14;87.25;97848.94;5021030;28;20060;-56
2022/12/28 00:19:17;;;;;;;26.63;13.18;;;;;;;7.20;87.29;97853.16;5014176;28;20061;-66
2022/12/28 00:21:45;;;;;;;31.73;17.63;;;;;;;6.93;86.92;97826.00;5002811;28;20077;-65
2022/12/28 00:24:21;;;;;;;21.88;10.93;;;;;;;7.16;87.10;97862.41;5003045;28;20078;-65
2022/12/28 00:26:48;;;;;;;21.60;12.20;;;;;;;7.21;86.38;97860.25;5002976;28;20112;-65
2022/12/28 00:29:16;;;;;;;14.85;8.20;;;;;;;7.22;86.13;97864.63;5006846;28;20058;-64
2022/12/28 00:31:44;;;;;;;18.10;11.30;;;;;;;7.08;86.54;97872.28;5006657;28;20049;-56
2022/12/28 00:34:11;;;;;;;22.10;14.10;;;;;;;6.95;87.64;97878.81;5006698;28;20444;-65
2022/12/28 00:36:38;;;;;;;18.13;9.57;;;;;;;6.89;87.56;97847.03;5006914;28;20438;-65
2022/12/28 00:39:25;;;;;;;16.92;9.75;;;;;;;7.14;87.42;97884.75;5007137;28;20053;-56
2022/12/28 00:41:51;;;;;;;9.60;6.10;;;;;;;5.97;89.96;97775.25;5004933;28;20054;-65
2022/12/28 00:44:18;;;;;;;14.75;8.05;;;;;;;6.60;89.97;97846.94;5006634;28;20073;-64
2022/12/28 00:46:45;;;;;;;12.32;8.00;;;;;;;6.45;89.37;97816.34;5006174;28;20046;-65
2022/12/28 00:49:11;;;;;;;14.32;6.78;;;;;;;6.98;88.53;97891.91;5006307;28;20111;-65
2022/12/28 00:51:38;;;;;;;13.63;7.38;;;;;;;7.03;88.85;97886.25;5006190;28;20057;-55
2022/12/28 00:54:05;;;;;;;13.80;8.60;;;;;;;7.04;88.98;97887.84;5006406;28;20108;-65
2022/12/28 00:56:31;;;;;;;22.98;11.23;;;;;;;7.07;89.16;97880.88;5006233;28;20081;-65
2022/12/28 00:58:59;;;;;;;23.60;12.02;;;;;;;6.79;88.28;97858.41;5006376;28;20050;-55
2022/12/28 01:01:27;;;;;;;22.65;11.30;;;;;;;6.72;91.11;97901.34;5005883;28;20061;-56
2022/12/28 01:03:55;;;;;;;21.85;11.45;;;;;;;6.98;90.01;97896.63;5006274;28;20491;-65
2022/12/28 01:06:22;;;;;;;22.77;11.77;;;;;;;6.63;89.31;97829.75;5005682;28;20120;-64
2022/12/28 01:08:49;;;;;;;28.88;14.02;;;;;;;7.18;88.62;97893.16;5005986;28;20057;-55
2022/12/28 01:11:17;;;;;;;40.72;18.30;;;;;;;6.80;89.46;97871.03;5005490;28;20061;-56
2022/12/28 01:13:44;;;;;;;35.72;17.17;;;;;;;7.05;89.94;97889.47;5006092;28;20104;-65
2022/12/28 01:16:19;;;;;;;31.13;16.05;;;;;;;7.00;88.55;97875.84;5005894;28;20046;-63
2022/12/28 01:18:46;;;;;;;32.38;16.45;;;;;;;6.63;88.13;97804.16;5000023;28;20049;-55
2022/12/28 01:21:19;;;;;;;37.17;17.75;;;;;;;7.14;89.25;97882.00;5025186;28;20511;-65
2022/12/28 01:23:46;;;;;;;35.85;17.35;;;;;;;7.07;89.29;97876.19;5022859;28;20080;-64
2022/12/28 01:26:14;;;;;;;34.30;17.67;;;;;;;6.35;91.56;97830.44;5024576;28;20132;-65
2022/12/28 01:28:41;;;;;;;66.13;29.98;;;;;;;6.89;91.77;97913.13;5024932;28;20570;-65
2022/12/28 01:31:11;;;;;;;38.75;20.73;;;;;;;6.57;91.01;97820.06;5025335;28;20057;-56
2022/12/28 01:33:38;;;;;;;34.78;18.63;;;;;;;6.84;89.74;97861.00;5025386;28;20122;-55
2022/12/28 01:36:09;;;;;;;37.00;18.33;;;;;;;7.14;89.42;97881.19;5025262;28;20581;-65
2022/12/28 01:38:35;;;;;;;28.83;15.98;;;;;;;7.04;89.98;97876.84;5024863;28;20160;-55
2022/12/28 01:41:06;;;;;;;16.63;11.15;;;;;;;6.72;89.10;97814.03;5025108;28;20541;-56
2022/12/28 01:43:40;;;;;;;15.65;9.48;;;;;;;6.92;89.18;97829.88;5024962;28;20136;-65
2022/12/28 01:46:11;;;;;;;14.43;8.90;;;;;;;7.16;89.49;97878.94;5025038;28;20076;-56
2022/12/28 01:49:00;;;;;;;11.52;6.57;;;;;;;7.05;88.76;97881.19;5024885;28;20507;-64
2022/12/28 01:51:32;;;;;;;10.70;6.07;;;;;;;7.02;88.63;97873.59;5024736;28;20057;-66
2022/12/28 01:54:02;;;;;;;10.77;3.97;;;;;;;7.08;88.37;97897.06;5024882;28;20084;-64
2022/12/28 01:56:29;;;;;;;9.38;3.92;;;;;;;6.67;87.77;97821.66;5022558;28;20478;-65
2022/12/28 01:58:56;;;;;;;5.78;3.72;;;;;;;7.08;86.05;97880.53;5022557;28;20944;-57
2022/12/28 02:01:24;;;;;;;7.78;3.55;;;;;;;6.71;85.56;97812.44;5024688;28;20111;-64
2022/12/28 02:03:51;;;;;;;7.00;4.35;;;;;;;7.18;85.69;97871.94;5024807;28;20136;-65
2022/12/28 02:06:18;;;;;;;5.53;3.05;;;;;;;7.10;83.74;97881.03;5024821;28;20148;-56
2022/12/28 02:09:00;;;;;;;7.65;4.50;;;;;;;7.14;84.69;97871.00;5022973;28;20134;-57
2022/12/28 02:11:28;;;;;;;6.10;3.78;;;;;;;7.14;83.40;97876.50;5024483;28;20076;-56
2022/12/28 02:13:56;;;;;;;8.75;4.75;;;;;;;6.53;82.78;97810.81;5024415;28;20057;-65
2022/12/28 02:16:22;;;;;;;6.00;4.20;;;;;;;7.11;82.11;97882.63;5024590;28;20061;-56
2022/12/28 02:18:50;;;;;;;22.70;10.00;;;;;;;6.96;81.70;97846.53;5025078;28;20045;-65
2022/12/28 02:21:29;;;;;;;7.15;4.53;;;;;;;7.18;83.25;97860.91;5024643;28;20519;-65
2022/12/28 02:24:21;;;;;;;8.10;5.38;;;;;;;7.09;83.58;97868.41;5025084;28;20128;-57
2022/12/28 02:26:51;;;;;;;9.32;4.68;;;;;;;7.16;82.42;97873.41;5024438;28;20049;-56
2022/12/28 02:29:47;;;;;;;18.08;8.32;;;;;;;6.73;80.29;97782.63;5024014;28;20141;-65
2022/12/28 02:32:41;;;;;;;10.10;5.80;;;;;;;7.06;80.66;97858.03;5024282;28;20106;-57
2022/12/28 02:35:18;;;;;;;14.52;7.93;;;;;;;7.17;79.37;97851.03;5022903;28;20115;-56
2022/12/28 02:37:58;;;;;;;14.98;6.72;;;;;;;7.10;78.77;97853.47;5024319;28;20050;-56
2022/12/28 02:40:41;;;;;;;10.98;5.18;;;;;;;6.23;77.41;97704.53;5021947;28;20437;-65
2022/12/28 02:43:08;;;;;;;10.65;5.35;;;;;;;7.22;76.83;97856.34;5023751;28;20115;-65
2022/12/28 02:51:45;;;;;;;7.10;4.20;;;;;;;7.37;74.02;97872.38;5022554;28;20057;-65
2022/12/28 02:57:43;;;;;;;9.70;5.03;;;;;;;7.49;72.20;97869.72;5023499;28;20128;-64
2022/12/28 03:00:14;;;;;;;10.98;4.88;;;;;;;7.61;69.79;97864.34;5023241;28;20529;-64
2022/12/28 03:03:03;;;;;;;7.93;4.50;;;;;;;7.58;69.17;97870.53;5023824;28;20081;-58
2022/12/28 03:08:58;;;;;;;8.80;4.32;;;;;;;7.74;69.33;97868.78;5023401;28;20443;-57
2022/12/28 03:11:45;;;;;;;28.70;17.27;;;;;;;7.65;68.01;97881.00;5023471;28;20489;-65
2022/12/28 03:14:25;;;;;;;34.35;24.35;;;;;;;7.31;67.34;97829.59;5023157;28;20092;-65
2022/12/28 03:31:10;;;;;;;10.60;6.40;;;;;;;7.84;65.26;97894.41;5003460;28;20046;-56
2022/12/28 03:33:46;;;;;;;13.80;9.00;;;;;;;7.71;64.96;97902.56;5002025;28;20046;-56
2022/12/28 03:36:26;;;;;;;15.52;8.80;;;;;;;7.70;66.59;97906.47;5003140;28;20086;-64
2022/12/28 03:39:05;;;;;;;25.65;13.52;;;;;;;7.71;66.59;97912.78;5001716;28;20062;-64
2022/12/28 03:41:39;;;;;;;29.85;15.07;;;;;;;7.69;67.02;97909.56;5001074;28;20607;-56
2022/12/28 03:44:17;;;;;;;31.10;17.35;;;;;;;7.68;67.03;97922.53;5003185;28;20049;-56
2022/12/28 03:47:04;;;;;;;15.07;9.32;;;;;;;7.66;66.93;97911.03;5003003;28;20483;-65
2022/12/28 03:49:30;;;;;;;15.43;10.00;;;;;;;7.13;66.53;97819.75;5001952;28;20301;-66
2022/12/28 03:52:00;;;;;;;15.52;9.43;;;;;;;7.61;65.88;97908.44;5001900;28;20054;-56
2022/12/28 03:54:27;;;;;;;11.20;6.40;;;;;;;7.62;66.00;97907.31;5002074;28;20045;-57
2022/12/28 03:56:53;;;;;;;10.45;7.20;;;;;;;7.59;66.97;97916.25;5003395;28;20050;-57
2022/12/28 03:59:20;;;;;;;11.05;6.38;;;;;;;7.34;66.92;97903.34;5002992;28;20057;-65
2022/12/28 04:01:46;;;;;;;17.23;6.10;;;;;;;6.93;67.09;97872.81;5002222;28;20152;-66
2022/12/28 04:04:13;;;;;;;12.02;6.75;;;;;;;7.14;69.19;97942.63;5002894;28;20054;-65
2022/12/28 04:06:40;;;;;;;10.23;6.38;;;;;;;7.02;69.97;97927.88;5002788;28;20045;-66
2022/12/28 04:09:06;;;;;;;13.73;6.75;;;;;;;7.10;69.01;97936.13;5002922;28;20551;-57
2022/12/28 04:11:33;;;;;;;9.75;5.75;;;;;;;7.14;69.95;97939.88;5002485;28;20085;-57
2022/12/28 04:14:02;;;;;;;18.85;10.93;;;;;;;7.01;70.63;97927.06;4985494;28;20503;-56
2022/12/28 04:16:36;;;;;;;12.70;8.27;;;;;;;6.92;70.53;97945.56;5002823;28;20049;-56
2022/12/28 04:19:02;;;;;;;18.58;9.77;;;;;;;6.87;71.40;97942.97;5006859;28;20091;-57
2022/12/28 04:21:29;;;;;;;27.50;14.07;;;;;;;6.68;71.99;97930.63;5022281;28;20153;-66
2022/12/28 04:23:55;;;;;;;26.70;15.43;;;;;;;6.78;71.79;97955.91;5022130;28;20084;-57
2022/12/28 04:26:22;;;;;;;18.38;10.25;;;;;;;6.69;71.05;97949.59;5021843;28;20479;-65
2022/12/28 04:28:49;;;;;;;12.52;8.00;;;;;;;6.04;71.16;97863.56;5020736;28;20057;-66
2022/12/28 04:31:16;;;;;;;25.35;13.70;;;;;;;6.47;71.17;97924.97;5022604;28;20343;-57
2022/12/28 04:33:43;;;;;;;27.63;14.88;;;;;;;6.31;70.83;97904.53;5022115;28;20504;-66
2022/12/28 04:36:14;;;;;;;30.23;16.83;;;;;;;6.54;71.67;97944.56;5020589;28;20525;-57
2022/12/28 04:38:41;;;;;;;16.42;7.97;;;;;;;6.68;69.96;97944.41;5022480;28;20500;-65
2022/12/28 04:41:09;;;;;;;19.92;9.77;;;;;;;6.75;70.40;97929.00;5020647;28;20146;-58
2022/12/28 04:43:37;;;;;;;9.40;5.10;;;;;;;6.19;69.78;97865.88;5020730;28;20049;-57
2022/12/28 04:46:08;;;;;;;12.80;6.63;;;;;;;6.75;69.82;97929.00;5021968;28;20132;-57
2022/12/28 04:48:35;;;;;;;11.40;6.15;;;;;;;6.75;69.61;97929.00;5021979;28;20053;-57
2022/12/28 04:51:07;;;;;;;7.35;5.20;;;;;;;6.81;69.15;97944.22;5021691;28;20045;-65
2022/12/28 04:53:38;;;;;;;15.55;8.40;;;;;;;6.57;70.61;97949.44;5022286;28;20085;-56
2022/12/28 04:56:10;;;;;;;17.63;8.50;;;;;;;5.79;74.48;97944.00;5020810;28;20053;-56
2022/12/28 04:58:37;;;;;;;24.48;9.93;;;;;;;6.06;76.09;97965.81;5021156;28;20516;-64
2022/12/28 05:01:06;;;;;;;19.45;8.82;;;;;;;6.14;75.18;97959.53;5022032;28;20046;-58
2022/12/28 05:03:33;;;;;;;26.55;12.85;;;;;;;6.08;75.19;97964.38;5022449;28;20084;-65
2022/12/28 05:06:06;;;;;;;23.77;11.05;;;;;;;6.16;75.31;97966.31;5020193;28;20057;-56
2022/12/28 05:08:36;;;;;;;22.90;9.98;;;;;;;5.92;75.12;97910.94;5022044;28;20132;-66
2022/12/28 05:11:06;;;;;;;21.30;9.38;;;;;;;6.24;74.91;97958.41;5021827;28;20081;-63
2022/12/28 05:13:33;;;;;;;13.38;5.90;;;;;;;6.41;74.06;97958.44;5021743;28;20100;-64
2022/12/28 05:16:04;;;;;;;17.45;8.23;;;;;;;6.28;75.39;97965.72;5023831;28;20132;-63
2022/12/28 05:18:31;;;;;;;27.17;11.27;;;;;;;5.96;75.77;97894.59;5024861;28;20053;-64
2022/12/28 05:21:25;;;;;;;46.00;21.42;;;;;;;6.38;75.78;97951.66;5003975;28;20081;-65
2022/12/28 05:23:52;;;;;;;;;;;;;;;6.44;75.46;97946.81;5006409;28;20141;-58
2022/12/28 05:26:22;;;;;;;44.60;20.48;;;;;;;5.78;76.21;97859.94;5005331;28;19961;-64
2022/12/28 05:28:49;;;;;;;32.67;17.05;;;;;;;6.39;75.65;97953.28;5003895;28;20058;-65
2022/12/28 05:31:19;;;;;;;31.48;16.77;;;;;;;6.45;75.95;97945.69;5005035;28;20529;-64
2022/12/28 05:33:46;;;;;;;26.83;14.00;;;;;;;6.52;75.72;97941.31;5005463;28;20077;-65
2022/12/28 05:36:16;;;;;;;23.88;12.55;;;;;;;6.55;75.48;97956.38;5005301;28;20054;-65
2022/12/28 05:38:43;;;;;;;17.80;11.52;;;;;;;6.26;75.09;97915.69;5005584;28;20054;-64
2022/12/28 05:41:17;;;;;;;14.93;9.02;;;;;;;6.66;75.42;97953.00;5004375;28;20066;-56
2022/12/28 05:43:44;;;;;;;25.45;11.05;;;;;;;6.64;75.76;97960.75;5005134;28;20065;-59
2022/12/28 05:46:18;;;;;;;32.85;17.88;;;;;;;6.62;75.17;97968.53;5004889;28;20469;-66
2022/12/28 05:48:46;;;;;;;58.20;27.95;;;;;;;6.61;75.38;97961.41;5005394;28;20054;-66
2022/12/28 05:51:15;;;;;;;48.33;27.15;;;;;;;6.70;75.05;97970.47;5004986;28;20147;-57
2022/12/28 05:53:42;;;;;;;47.30;25.17;;;;;;;6.74;74.83;97971.47;5005179;28;20582;-66
2022/12/28 05:56:14;;;;;;;40.72;20.60;;;;;;;6.54;74.02;97936.31;5004773;28;20475;-66
2022/12/28 05:58:42;;;;;;;81.78;41.28;;;;;;;6.33;73.74;97927.06;5005181;28;20049;-58
2022/12/28 06:01:12;;;;;;;99.18;59.40;;;;;;;6.46;74.77;97975.63;5004833;28;20602;-57
2022/12/28 06:03:39;;;;;;;145.80;79.88;;;;;;;6.32;75.09;97947.44;5005106;28;20164;-65
2022/12/28 06:06:14;;;;;;;87.00;41.75;;;;;;;6.51;75.15;97994.75;5004641;28;20065;-57
2022/12/28 06:08:42;;;;;;;70.70;32.30;;;;;;;6.50;75.62;97993.13;5003733;28;20244;-67
2022/12/28 06:11:12;;;;;;;51.22;22.95;;;;;;;6.47;76.18;97988.25;5004783;28;21063;-58
2022/12/28 06:13:39;;;;;;;30.10;13.68;;;;;;;6.42;76.24;97993.91;5004914;28;20046;-66
2022/12/28 06:16:07;;;;;;;26.05;12.63;;;;;;;6.33;76.21;97965.56;5004598;28;20124;-56
2022/12/28 06:18:35;;;;;;;44.50;17.13;;;;;;;6.54;75.64;97994.13;5005264;28;20085;-65
2022/12/28 06:21:12;;;;;;;33.35;15.07;;;;;;;6.36;77.92;98008.94;5024046;28;20288;-58
2022/12/28 06:23:39;;;;;;;37.53;18.48;;;;;;;6.42;77.58;98018.69;5024678;28;20053;-58
2022/12/28 06:26:07;;;;;;;60.63;30.80;;;;;;;6.43;77.65;98002.97;5023869;28;20057;-55
2022/12/28 06:28:38;;;;;;;91.40;46.17;;;;;;;6.42;77.91;98006.88;5022156;28;20107;-66
2022/12/28 06:31:06;;;;;;;91.90;51.67;;;;;;;6.56;77.88;98005.59;5017901;28;20144;-60
2022/12/28 06:33:33;;;;;;;134.85;64.07;;;;;;;6.62;77.39;98009.84;5023866;28;20107;-57
2022/12/28 06:36:00;;;;;;;170.25;80.13;;;;;;;6.46;76.98;97964.63;5022724;28;20547;-65
2022/12/28 06:38:31;;;;;;;117.75;58.00;;;;;;;6.71;76.16;98007.91;5024374;28;20049;-56
2022/12/28 06:41:05;;;;;;;76.32;38.78;;;;;;;6.82;75.31;98002.88;5023529;28;20166;-57
2022/12/28 06:43:41;;;;;;;64.78;34.63;;;;;;;6.76;75.55;98007.75;5023894;28;20136;-65
2022/12/28 06:46:09;;;;;;;60.53;31.55;;;;;;;6.76;75.79;98013.25;5022416;28;20102;-64
2022/12/28 06:48:36;;;;;;;62.30;33.88;;;;;;;6.73;75.46;97997.38;5022829;28;20065;-66
2022/12/28 06:51:05;;;;;;;69.85;37.20;;;;;;;6.69;77.67;98021.16;5024369;28;20049;-64
2022/12/28 06:53:36;;;;;;;37.05;18.73;;;;;;;6.54;79.47;97998.78;5024097;28;20107;-65
2022/12/28 06:56:06;;;;;;;43.60;19.13;;;;;;;6.68;78.29;98030.56;5022407;28;20104;-64
2022/12/28 06:58:33;;;;;;;36.50;17.42;;;;;;;6.73;76.67;98035.94;5023495;28;20547;-66
2022/12/28 07:01:06;;;;;;;31.67;14.38;;;;;;;6.47;78.15;98036.97;5021891;28;20618;-56
2022/12/28 07:03:34;;;;;;;18.67;8.40;;;;;;;6.52;78.22;98039.59;5023691;28;20059;-58
2022/12/28 07:06:02;;;;;;;10.32;4.88;;;;;;;6.51;77.37;98041.53;5023465;28;20076;-57
2022/12/28 07:08:29;;;;;;;16.77;8.43;;;;;;;6.61;77.45;98043.97;5022313;28;20699;-65
2022/12/28 07:11:05;;;;;;;19.95;10.75;;;;;;;6.30;77.11;97966.22;5023631;28;20154;-58
2022/12/28 07:13:32;;;;;;;17.70;9.75;;;;;;;6.89;76.95;98056.34;5023849;28;20049;-65
2022/12/28 07:16:04;;;;;;;15.38;8.52;;;;;;;7.04;76.55;98047.63;5023437;28;20061;-56
2022/12/28 07:18:32;;;;;;;12.45;8.80;;;;;;;7.02;75.74;98038.03;5023466;28;20073;-63
2022/12/28 07:21:04;;;;;;;33.25;12.93;;;;;;;7.24;75.66;98051.69;5006337;28;20056;-64
2022/12/28 07:23:31;;;;;;;27.17;12.60;;;;;;;7.28;75.34;98047.97;5003304;28;20069;-65
2022/12/28 07:26:08;;;;;;;25.15;13.77;;;;;;;7.51;75.24;98057.66;5003222;28;20724;-58
2022/12/28 07:28:37;;;;;;;31.05;16.50;;;;;;;7.62;74.18;98058.94;5003651;28;20072;-56
2022/12/28 07:31:08;;;;;;;28.17;15.82;;;;;;;7.21;75.09;97980.69;5003160;28;20049;-65
2022/12/28 07:33:36;;;;;;;28.95;15.38;;;;;;;7.66;75.97;98059.94;5003642;28;20550;-56
2022/12/28 07:36:04;;;;;;;52.67;24.95;;;;;;;7.74;75.10;98056.31;5013907;28;20045;-63
2022/12/28 07:38:31;;;;;;;65.85;34.80;;;;;;;7.40;74.51;98022.47;5020984;28;20507;-57
2022/12/28 07:41:06;;;;;;;86.05;44.78;;;;;;;6.84;73.97;97927.09;5017123;28;20499;-60
2022/12/28 07:43:34;;;;;;;70.05;35.80;;;;;;;6.68;74.71;97931.47;5003270;28;20069;-65
2022/12/28 07:46:04;;;;;;;86.75;44.08;;;;;;;7.33;74.42;97978.88;5004092;28;20104;-57
2022/12/28 07:48:33;;;;;;;98.10;47.00;;;;;;;8.02;74.10;98075.25;5016318;28;20107;-58
2022/12/28 07:51:11;;;;;;;47.33;26.63;;;;;;;8.20;73.62;98076.84;5019391;28;20041;-57
2022/12/28 07:53:38;;;;;;;45.63;28.60;;;;;;;7.97;71.81;98036.81;5015716;28;20057;-58
2022/12/28 07:56:05;;;;;;;50.17;27.48;;;;;;;7.28;72.54;98025.91;5011748;28;20515;-65
2022/12/28 07:58:33;;;;;;;40.63;23.67;;;;;;;8.30;70.59;98101.38;5001176;28;20062;-62
2022/12/28 08:01:10;;;;;;;39.58;22.00;;;;;;;8.40;70.90;98101.81;5008585;28;20061;-59
2022/12/28 08:03:39;;;;;;;38.40;22.38;;;;;;;8.43;70.16;98094.78;5032763;28;20435;-66
2022/12/28 08:06:08;;;;;;;40.13;22.42;;;;;;;8.64;70.06;98112.25;5017496;28;20053;-59
2022/12/28 08:08:40;;;;;;;45.28;24.58;;;;;;;8.43;67.99;98100.31;5014497;28;20128;-64
2022/12/28 08:11:10;;;;;;;38.30;20.10;;;;;;;8.61;70.73;98118.44;5011802;28;20061;-58
2022/12/28 08:13:38;;;;;;;31.30;18.98;;;;;;;8.34;72.41;98118.88;5020800;28;20056;-64
2022/12/28 08:16:06;;;;;;;26.95;13.98;;;;;;;8.34;72.57;98111.41;5021395;28;20058;-57
2022/12/28 08:18:33;;;;;;;23.83;14.07;;;;;;;8.05;74.08;98107.72;5006846;28;20427;-56
2022/12/28 08:21:07;;;;;;;14.27;9.13;;;;;;;7.20;71.14;98018.47;5002215;28;20058;-69
2022/12/28 08:23:33;;;;;;;16.23;9.27;;;;;;;7.41;72.03;97947.72;5008805;28;20082;-57
2022/12/28 08:26:12;;;;;;;20.30;9.93;;;;;;;8.49;70.44;98054.81;5019312;28;20119;-57
2022/12/28 08:28:39;;;;;;;20.63;9.27;;;;;;;7.68;69.50;97908.72;4985500;28;20350;-68
2022/12/28 08:31:09;;;;;;;15.63;9.52;;;;;;;9.37;69.02;98116.41;5016449;28;20053;-64
2022/12/28 08:33:36;;;;;;;17.65;10.50;;;;;;;8.57;68.22;97943.50;5021830;28;20132;-57
2022/12/28 08:36:04;;;;;;;16.40;9.25;;;;;;;9.68;67.24;98065.03;5021682;28;20132;-61
2022/12/28 08:38:32;;;;;;;24.55;11.90;;;;;;;10.04;62.86;98079.00;5032982;28;20058;-70
2022/12/28 08:41:01;;;;;;;36.70;17.83;;;;;;;10.65;61.50;98138.94;5034917;28;20057;-57
2022/12/28 08:43:29;;;;;;;28.25;12.35;;;;;;;10.73;61.11;98139.19;5020388;28;20053;-61
2022/12/28 08:46:13;;;;;;;26.92;13.02;;;;;;;10.18;61.31;98034.44;5021740;28;20049;-59
2022/12/28 08:48:41;;;;;;;10.52;7.10;;;;;;;10.62;60.02;98145.19;5023082;28;20175;-57
2022/12/28 08:51:10;;;;;;;13.32;7.47;;;;;;;10.59;60.11;98140.31;5024797;28;20562;-59
2022/12/28 08:53:38;;;;;;;10.40;6.88;;;;;;;10.54;61.43;98137.00;5004530;28;20049;-62
2022/12/28 08:56:04;;;;;;;10.85;6.72;;;;;;;10.64;61.89;98131.78;5005330;28;20143;-65
2022/12/28 08:58:33;;;;;;;12.90;7.40;;;;;;;10.63;61.99;98124.66;5005401;28;20544;-67
2022/12/28 09:01:10;;;;;;;12.68;8.23;;;;;;;10.60;60.89;98114.25;5014552;28;20060;-66
2022/12/28 09:03:38;;;;;;;18.40;10.93;;;;;;;7.71;59.99;97631.53;5023067;28;20490;-60
2022/12/28 09:06:08;;;;;;;12.32;5.90;;;;;;;10.54;60.46;98197.94;5023123;28;20164;-57
2022/12/28 09:08:35;;;;;;;9.45;6.38;;;;;;;10.14;60.88;98117.38;5005417;28;20085;-57
2022/12/28 09:11:06;;;;;;;10.63;6.40;;;;;;;10.47;61.31;98143.09;5005169;28;20054;-72
2022/12/28 09:13:33;;;;;;;13.05;7.45;;;;;;;10.62;60.28;98142.41;5017602;28;20057;-59
2022/12/28 09:16:09;;;;;;;521.08;446.25;;;;;;;10.73;61.09;98128.13;5010336;28;20511;-60
2022/12/28 09:18:37;;;;;;;12.90;8.55;;;;;;;10.96;59.89;98132.03;5014541;28;20528;-55
2022/12/28 09:21:27;;;;;;;14.52;8.68;;;;;;;10.73;58.78;98063.22;5004783;28;20565;-64
2022/12/28 09:23:54;;;;;;;23.13;13.90;;;;;;;11.39;59.66;98123.94;5024751;28;20111;-66
2022/12/28 09:26:26;;;;;;;34.85;18.48;;;;;;;11.70;59.26;98119.38;5024578;28;20053;-60
2022/12/28 09:28:55;;;;;;;32.95;19.98;;;;;;;11.97;58.43;98106.69;5013751;28;20131;-58
2022/12/28 09:31:24;;;;;;;36.40;19.10;;;;;;;12.17;57.59;98108.47;5004697;28;20128;-66
2022/12/28 09:36:46;;;;;;;24.05;15.18;;;;;;;12.07;54.11;98086.75;5005134;28;20450;-60
2022/12/28 09:39:18;;;;;;;22.95;13.45;;;;;;;12.03;54.03;98097.75;5005401;28;20061;-57
2022/12/28 09:41:48;;;;;;;13.32;7.20;;;;;;;12.00;52.29;98095.69;4991151;28;20057;-61
2022/12/28 09:44:34;;;;;;;18.30;9.27;;;;;;;11.91;53.07;98102.53;5004832;28;20124;-60
2022/12/28 09:47:19;;;;;;;16.52;9.15;;;;;;;11.94;52.20;98096.28;5002943;28;20503;-62
2022/12/28 09:49:58;;;;;;;17.25;10.80;;;;;;;11.93;52.36;98091.91;5019468;28;20078;-57
2022/12/28 09:52:42;;;;;;;17.48;8.73;;;;;;;11.89;52.24;98102.09;5022460;28;20061;-57
2022/12/28 09:55:17;;;;;;;14.05;8.55;;;;;;;11.83;51.76;98100.72;5007318;28;20406;-57
2022/12/28 09:57:50;;;;;;;17.33;9.82;;;;;;;11.87;51.58;98101.66;4986875;28;20180;-58
2022/12/28 10:00:23;;;;;;;9.63;6.45;;;;;;;11.71;51.04;98098.00;5020209;28;20471;-58
2022/12/28 10:03:09;;;;;;;10.50;5.82;;;;;;;11.23;50.25;98043.41;5022174;28;20045;-58
2022/12/28 10:05:36;;;;;;;7.45;5.30;;;;;;;11.49;51.56;98090.16;5010344;28;20132;-57
2022/12/28 10:08:03;;;;;;;15.90;9.50;;;;;;;11.28;52.43;98081.19;5005495;28;20050;-60
2022/12/28 10:10:30;;;;;;;6.63;5.10;;;;;;;11.26;52.13;98102.91;5003831;28;20085;-61
2022/12/28 10:13:06;;;;;;;11.18;6.38;;;;;;;10.27;52.75;97955.66;5026711;28;20428;-59
2022/12/28 10:15:54;;;;;;;10.43;5.68;;;;;;;10.38;52.11;98045.44;5022564;28;20320;-60
2022/12/28 10:18:25;;;;;;;6.80;4.35;;;;;;;10.60;52.62;98053.31;5023802;28;20058;-64
2022/12/28 10:20:52;;;;;;;7.95;4.82;;;;;;;10.77;53.53;98084.69;5021908;28;20103;-60
2022/12/28 10:23:26;;;;;;;8.13;4.68;;;;;;;10.84;53.76;98090.47;5021937;28;20084;-56
2022/12/28 10:25:54;;;;;;;;;;;;;;;10.84;54.08;98090.47;5005291;28;20053;-62
2022/12/28 10:28:27;;;;;;;11.43;6.43;;;;;;;10.68;53.71;98088.38;5005229;28;19933;-60
2022/12/28 10:31:09;;;;;;;8.93;5.82;;;;;;;10.39;54.04;98066.44;5018876;28;20058;-60
2022/12/28 10:33:41;;;;;;;17.45;8.35;;;;;;;10.36;54.08;98092.06;5018229;28;20099;-55
2022/12/28 10:36:14;;;;;;;24.98;11.75;;;;;;;10.48;53.86;98100.38;5022999;28;20142;-66
2022/12/28 10:38:49;;;;;;;13.20;6.03;;;;;;;10.23;54.16;98076.56;5021798;28;20061;-55
2022/12/28 10:41:17;;;;;;;10.50;5.78;;;;;;;10.15;54.45;98069.16;5016633;28;20128;-61
2022/12/28 10:43:52;;;;;;;25.10;9.15;;;;;;;9.65;55.04;97977.19;5004135;28;21347;-55
2022/12/28 10:46:50;;;;;;;10.32;6.38;;;;;;;10.07;55.25;98070.03;5003463;28;20132;-60
2022/12/28 10:49:18;;;;;;;10.30;5.82;;;;;;;9.92;55.17;98045.78;5005536;28;20042;-58
2022/12/28 10:52:03;;;;;;;10.63;6.03;;;;;;;10.29;55.69;98094.56;5005652;28;20041;-66
2022/12/28 10:54:34;;;;;;;34.83;13.43;;;;;;;10.37;55.84;98088.13;5018433;28;20508;-69
2022/12/28 10:57:02;;;;;;;15.80;8.38;;;;;;;9.71;55.74;97986.91;5003741;28;20137;-68
2022/12/28 10:59:31;;;;;;;8.48;6.20;;;;;;;10.53;55.64;98094.63;5003457;28;20060;-57
2022/12/28 11:02:28;;;;;;;13.23;6.25;;;;;;;10.36;55.54;98052.47;5003517;28;20555;-68
2022/12/28 11:05:04;;;;;;;21.95;9.43;;;;;;;10.55;56.93;98086.78;5003265;28;20405;-68
2022/12/28 11:07:36;;;;;;;14.40;8.05;;;;;;;10.56;56.74;98085.59;5017964;28;20392;-57
2022/12/28 11:10:27;;;;;;;15.20;8.82;;;;;;;10.69;56.25;98078.09;5001473;28;20061;-67
2022/12/28 11:12:57;;;;;;;23.25;10.00;;;;;;;10.72;55.94;98085.72;5002578;28;20053;-57
2022/12/28 11:15:31;;;;;;;17.90;9.05;;;;;;;10.75;56.02;98075.94;5003102;28;20132;-71
2022/12/28 11:18:18;;;;;;;9.70;5.68;;;;;;;10.62;56.20;98078.69;5003581;28;20049;-66
2022/12/28 11:20:51;;;;;;;10.73;6.28;;;;;;;10.21;55.36;98017.94;5024100;28;20041;-57
2022/12/28 11:23:24;;;;;;;10.13;6.80;;;;;;;10.36;56.07;98030.31;5023040;28;20516;-58
2022/12/28 11:25:51;;;;;;;12.40;6.50;;;;;;;10.45;56.46;98083.63;5022921;28;20054;-56
2022/12/28 11:28:19;;;;;;;10.85;5.82;;;;;;;10.58;55.80;98072.22;5022717;28;20602;-54
2022/12/28 11:30:49;;;;;;;10.95;6.30;;;;;;;9.55;56.17;97893.88;5022446;28;20063;-59
2022/12/28 11:33:31;;;;;;;14.40;7.43;;;;;;;10.64;56.81;98070.03;5022533;28;20095;-56
2022/12/28 11:35:59;;;;;;;11.30;6.90;;;;;;;10.28;56.85;98034.81;5022514;28;20479;-56
2022/12/28 11:38:47;;;;;;;10.45;5.80;;;;;;;10.01;57.06;98035.41;5020994;28;20060;-59
2022/12/28 11:41:22;;;;;;;32.25;14.55;;;;;;;10.55;56.69;98067.38;5016110;28;20500;-58
2022/12/28 11:44:03;;;;;;;14.13;8.35;;;;;;;10.53;56.87;98069.69;5002487;28;20086;-66
2022/12/28 11:46:30;;;;;;;19.20;9.95;;;;;;;10.53;56.36;98080.75;5002671;28;20065;-57
2022/12/28 11:49:19;;;;;;;15.02;9.13;;;;;;;10.56;56.50;98080.06;5002883;28;20420;-56
2022/12/28 11:51:46;;;;;;;10.75;6.45;;;;;;;9.92;56.89;97998.72;5002279;28;20229;-65
2022/12/28 11:54:36;;;;;;;10.82;5.38;;;;;;;10.43;56.74;98078.44;5001974;28;20054;-66
2022/12/28 11:57:03;;;;;;;11.75;6.10;;;;;;;9.77;57.42;97988.28;5002845;28;20060;-55
2022/12/28 11:59:34;;;;;;;9.82;5.53;;;;;;;10.07;57.46;98034.06;5000615;28;20048;-57
2022/12/28 12:02:22;;;;;;;12.98;5.85;;;;;;;10.41;59.11;98094.59;5000605;28;20177;-60
2022/12/28 12:04:48;;;;;;;12.07;6.93;;;;;;;9.99;59.40;98032.16;5000673;28;20052;-68
2022/12/28 12:07:24;;;;;;;16.58;8.15;;;;;;;9.94;61.34;98115.41;5000929;28;20097;-59
2022/12/28 12:10:13;;;;;;;13.20;6.43;;;;;;;9.72;62.83;98077.03;5002362;28;20107;-59
2022/12/28 12:12:51;;;;;;;8.60;4.45;;;;;;;9.49;63.40;98084.09;5002450;28;20064;-63
2022/12/28 12:15:23;;;;;;;15.68;7.93;;;;;;;9.26;63.76;98026.69;5002396;28;20050;-65
2022/12/28 12:18:13;;;;;;;25.65;9.43;;;;;;;9.36;65.58;98074.09;5002549;28;20049;-63
2022/12/28 12:21:04;;;;;;;11.20;6.70;;;;;;;8.80;68.89;98019.41;5004833;28;20107;-62